CFG25SA EDDH-LSGG
Flight info
| Callsign | CFG25SA |
|---|---|
| Flight time | N/A |
| Altitude | 37000 |
| Route | IDEKO7G/33 IDEKO N850 XAROL/N0445F380 DCT BOMBI DCT GIGET DCT ABUKA DCT KRH DCT NATOR/N0446F370 DCT DITON DCT BASGO/N0421F290 Z424 AKASU/N0355F190 Z424 RIXUV LSGG/22 |
| Aircraft | A320/M-SDE3FGHIRWY/LB1 |
Departure
| Time | N/A |
|---|---|
| Airport | Hamburg Helmut Schmidt Airport (EDDH) |
Arrival
| Time | 2026-05-05 18:24 |
|---|---|
| Airport | Geneva International Airport (LSGG) |
| Time | Latitude | Longitude | Altitude | Speed | Heading |
|---|---|---|---|---|---|
| 2026-05-05 17:58 | 45.78220 | 7.81663 | 21994 ft | 333 kts | 268° |
| 2026-05-05 17:58 | 45.78325 | 7.78348 | 21983 ft | 332 kts | 268° |
| 2026-05-05 17:59 | 45.78428 | 7.75042 | 21971 ft | 333 kts | 268° |
| 2026-05-05 17:59 | 45.78533 | 7.71724 | 21975 ft | 334 kts | 268° |
| 2026-05-05 17:59 | 45.78637 | 7.68401 | 21962 ft | 334 kts | 268° |
| 2026-05-05 17:59 | 45.78739 | 7.65121 | 21963 ft | 334 kts | 268° |
| 2026-05-05 18:00 | 45.78841 | 7.61790 | 21970 ft | 334 kts | 268° |
| 2026-05-05 18:00 | 45.78940 | 7.58468 | 21970 ft | 334 kts | 268° |
| 2026-05-05 18:00 | 45.79042 | 7.55105 | 21967 ft | 334 kts | 268° |
| 2026-05-05 18:00 | 45.79142 | 7.51819 | 21978 ft | 334 kts | 268° |
| 2026-05-05 18:01 | 45.79242 | 7.48495 | 21932 ft | 334 kts | 268° |
| 2026-05-05 18:01 | 45.79341 | 7.45168 | 21934 ft | 334 kts | 267° |
| 2026-05-05 18:01 | 45.79435 | 7.41846 | 21933 ft | 334 kts | 268° |
| 2026-05-05 18:01 | 45.79525 | 7.38515 | 21936 ft | 335 kts | 268° |
| 2026-05-05 18:02 | 45.79615 | 7.35184 | 21949 ft | 335 kts | 268° |
| 2026-05-05 18:02 | 45.79774 | 7.31845 | 21951 ft | 337 kts | 271° |
| 2026-05-05 18:02 | 45.80028 | 7.28505 | 21945 ft | 337 kts | 272° |
| 2026-05-05 18:02 | 45.80326 | 7.25175 | 21935 ft | 336 kts | 272° |
| 2026-05-05 18:03 | 45.80633 | 7.21856 | 21926 ft | 335 kts | 272° |
| 2026-05-05 18:03 | 45.80931 | 7.18549 | 21921 ft | 335 kts | 272° |
| 2026-05-05 18:03 | 45.81217 | 7.15231 | 21926 ft | 336 kts | 272° |
| 2026-05-05 18:03 | 45.81492 | 7.11902 | 21932 ft | 337 kts | 272° |
| 2026-05-05 18:04 | 45.81768 | 7.08558 | 21963 ft | 338 kts | 274° |
| 2026-05-05 18:04 | 45.82381 | 7.05274 | 21938 ft | 345 kts | 288° |
| 2026-05-05 18:04 | 45.83538 | 7.02229 | 21934 ft | 352 kts | 300° |
| 2026-05-05 18:04 | 45.84935 | 6.99326 | 21931 ft | 353 kts | 300° |
| 2026-05-05 18:05 | 45.86324 | 6.96430 | 21933 ft | 353 kts | 300° |
| 2026-05-05 18:05 | 45.87713 | 6.93525 | 21921 ft | 353 kts | 300° |
| 2026-05-05 18:05 | 45.89104 | 6.90606 | 21915 ft | 354 kts | 300° |
| 2026-05-05 18:05 | 45.90476 | 6.87721 | 21917 ft | 354 kts | 300° |
| 2026-05-05 18:06 | 45.91859 | 6.84806 | 21919 ft | 354 kts | 299° |
| 2026-05-05 18:06 | 45.92798 | 6.82822 | 21918 ft | 354 kts | 300° |
| 2026-05-05 18:06 | 45.94624 | 6.78967 | 21730 ft | 349 kts | 299° |
| 2026-05-05 18:06 | 45.95989 | 6.76086 | 21219 ft | 349 kts | 299° |
| 2026-05-05 18:07 | 45.97343 | 6.73201 | 20803 ft | 346 kts | 299° |
| 2026-05-05 18:07 | 45.98676 | 6.70327 | 20351 ft | 344 kts | 299° |
| 2026-05-05 18:07 | 45.99995 | 6.67466 | 19923 ft | 342 kts | 299° |
| 2026-05-05 18:07 | 46.01307 | 6.64622 | 19491 ft | 341 kts | 299° |
| 2026-05-05 18:08 | 46.02615 | 6.61786 | 19073 ft | 340 kts | 298° |
| 2026-05-05 18:08 | 46.03916 | 6.58959 | 18650 ft | 338 kts | 299° |
| 2026-05-05 18:08 | 46.05213 | 6.56148 | 18234 ft | 337 kts | 299° |
| 2026-05-05 18:08 | 46.06520 | 6.53342 | 17779 ft | 335 kts | 299° |
| 2026-05-05 18:09 | 46.07827 | 6.50572 | 17371 ft | 332 kts | 300° |
| 2026-05-05 18:09 | 46.09126 | 6.47835 | 16972 ft | 330 kts | 300° |
| 2026-05-05 18:09 | 46.10417 | 6.45116 | 16577 ft | 328 kts | 300° |
| 2026-05-05 18:09 | 46.11696 | 6.42420 | 16193 ft | 327 kts | 300° |
| 2026-05-05 18:10 | 46.12973 | 6.39726 | 15813 ft | 325 kts | 299° |
| 2026-05-05 18:10 | 46.14240 | 6.37050 | 15453 ft | 322 kts | 300° |
| 2026-05-05 18:10 | 46.15501 | 6.34381 | 15045 ft | 320 kts | 299° |
| 2026-05-05 18:10 | 46.16936 | 6.31903 | 14527 ft | 329 kts | 316° |
| 2026-05-05 18:11 | 46.18951 | 6.30321 | 14030 ft | 341 kts | 340° |
| 2026-05-05 18:11 | 46.21331 | 6.29971 | 13506 ft | 350 kts | 4° |
| 2026-05-05 18:11 | 46.23661 | 6.30968 | 13131 ft | 347 kts | 28° |
| 2026-05-05 18:11 | 46.25545 | 6.33000 | 12959 ft | 333 kts | 42° |
| 2026-05-05 18:12 | 46.27244 | 6.35225 | 12586 ft | 326 kts | 43° |
| 2026-05-05 18:12 | 46.28908 | 6.37439 | 12123 ft | 324 kts | 43° |
| 2026-05-05 18:12 | 46.30557 | 6.39645 | 11616 ft | 321 kts | 43° |
| 2026-05-05 18:12 | 46.32189 | 6.41832 | 11086 ft | 319 kts | 43° |
| 2026-05-05 18:13 | 46.33816 | 6.44001 | 10567 ft | 317 kts | 43° |
| 2026-05-05 18:13 | 46.35429 | 6.46159 | 10037 ft | 315 kts | 43° |
| 2026-05-05 18:13 | 46.37025 | 6.48288 | 9495 ft | 313 kts | 43° |
| 2026-05-05 18:13 | 46.38627 | 6.50424 | 8951 ft | 309 kts | 43° |
| 2026-05-05 18:14 | 46.40200 | 6.52536 | 8392 ft | 307 kts | 43° |
| 2026-05-05 18:14 | 46.41948 | 6.54268 | 7913 ft | 300 kts | 19° |
| 2026-05-05 18:14 | 46.43909 | 6.54779 | 7785 ft | 277 kts | 352° |
| 2026-05-05 18:14 | 46.45655 | 6.54023 | 7658 ft | 253 kts | 323° |
| 2026-05-05 18:15 | 46.46901 | 6.52439 | 7530 ft | 232 kts | 300° |
| 2026-05-05 18:15 | 46.47604 | 6.50423 | 7362 ft | 215 kts | 279° |
| 2026-05-05 18:15 | 46.47754 | 6.48335 | 7205 ft | 206 kts | 260° |
| 2026-05-05 18:15 | 46.47418 | 6.46363 | 7086 ft | 203 kts | 243° |
| 2026-05-05 18:16 | 46.46658 | 6.44679 | 6967 ft | 196 kts | 225° |
| 2026-05-05 18:16 | 46.45732 | 6.43307 | 6860 ft | 185 kts | 225° |
| 2026-05-05 18:16 | 46.44850 | 6.41993 | 6755 ft | 178 kts | 225° |
| 2026-05-05 18:16 | 46.44025 | 6.40765 | 6695 ft | 164 kts | 225° |
| 2026-05-05 18:17 | 46.43245 | 6.39607 | 6496 ft | 158 kts | 225° |
| 2026-05-05 18:17 | 46.42492 | 6.38490 | 6300 ft | 152 kts | 225° |
| 2026-05-05 18:17 | 46.41765 | 6.37410 | 6095 ft | 148 kts | 225° |
| 2026-05-05 18:17 | 46.41061 | 6.36366 | 5901 ft | 142 kts | 225° |
| 2026-05-05 18:18 | 46.40378 | 6.35352 | 5695 ft | 139 kts | 225° |
| 2026-05-05 18:18 | 46.39709 | 6.34360 | 5512 ft | 137 kts | 225° |
| 2026-05-05 18:18 | 46.39038 | 6.33367 | 5314 ft | 138 kts | 225° |
| 2026-05-05 18:18 | 46.38370 | 6.32378 | 5132 ft | 137 kts | 225° |
| 2026-05-05 18:19 | 46.37707 | 6.31395 | 4941 ft | 136 kts | 225° |
| 2026-05-05 18:19 | 46.37049 | 6.30422 | 4769 ft | 135 kts | 225° |
| 2026-05-05 18:19 | 46.36390 | 6.29448 | 4587 ft | 135 kts | 225° |
| 2026-05-05 18:19 | 46.35732 | 6.28474 | 4393 ft | 135 kts | 226° |
| 2026-05-05 18:20 | 46.35078 | 6.27507 | 4219 ft | 134 kts | 226° |
| 2026-05-05 18:20 | 46.34426 | 6.26544 | 4031 ft | 134 kts | 225° |
| 2026-05-05 18:20 | 46.33775 | 6.25582 | 3858 ft | 134 kts | 225° |
| 2026-05-05 18:20 | 46.33126 | 6.24624 | 3671 ft | 134 kts | 225° |
| 2026-05-05 18:21 | 46.32485 | 6.23677 | 3503 ft | 133 kts | 224° |
| 2026-05-05 18:21 | 46.31828 | 6.22708 | 3320 ft | 133 kts | 225° |
| 2026-05-05 18:21 | 46.31181 | 6.21753 | 3139 ft | 132 kts | 225° |
| 2026-05-05 18:21 | 46.30539 | 6.20807 | 2958 ft | 131 kts | 223° |
| 2026-05-05 18:22 | 46.29887 | 6.19845 | 2778 ft | 135 kts | 224° |
| 2026-05-05 18:22 | 46.29249 | 6.18905 | 2573 ft | 132 kts | 224° |
| 2026-05-05 18:22 | 46.28605 | 6.17956 | 2394 ft | 132 kts | 224° |
| 2026-05-05 18:22 | 46.27955 | 6.17000 | 2212 ft | 134 kts | 225° |
| 2026-05-05 18:23 | 46.27300 | 6.16035 | 2038 ft | 135 kts | 225° |
| 2026-05-05 18:23 | 46.26639 | 6.15062 | 1864 ft | 136 kts | 224° |
| 2026-05-05 18:23 | 46.25976 | 6.14087 | 1684 ft | 135 kts | 223° |
| 2026-05-05 18:23 | 46.25311 | 6.13114 | 1513 ft | 137 kts | 223° |
| 2026-05-05 18:24 | 46.24663 | 6.12153 | 1372 ft | 128 kts | 223° |
| 2026-05-05 18:24 | 46.24135 | 6.11379 | 1374 ft | 82 kts | 226° |
| 2026-05-05 18:24 | 46.23855 | 6.10971 | 1380 ft | 41 kts | 225° |
| 2026-05-05 18:24 | 46.23667 | 6.10762 | 1380 ft | 31 kts | 205° |
| 2026-05-05 18:25 | 46.23510 | 6.10694 | 1386 ft | 5 kts | 196° |